createdAt,value
2018-04-08T00:02:07.402Z,99761.22
2018-04-08T00:04:34.872Z,99764.08
2018-04-08T00:07:02.355Z,99753.44
2018-04-08T00:09:29.821Z,99755.57
2018-04-08T00:11:57.295Z,99758.97
2018-04-08T00:14:24.755Z,99753.81
2018-04-08T00:16:52.216Z,99753.88
2018-04-08T00:19:19.701Z,99758.56
2018-04-08T00:21:47.180Z,99751.66
2018-04-08T00:24:14.665Z,99743.95
2018-04-08T00:26:42.116Z,99742.30
2018-04-08T00:29:09.643Z,99740.89
2018-04-08T00:31:37.103Z,99730.25
2018-04-08T00:34:04.567Z,99732.88
2018-04-08T00:36:32.037Z,99733.25
2018-04-08T00:38:59.518Z,99725.55
2018-04-08T00:41:26.992Z,99713.17
2018-04-08T00:43:54.659Z,99722.97
2018-04-08T00:46:22.116Z,99710.48
2018-04-08T00:48:49.607Z,99705.51
2018-04-08T00:51:17.075Z,99710.57
2018-04-08T00:53:44.591Z,99710.65
2018-04-08T00:56:12.063Z,99705.51
2018-04-08T00:58:39.564Z,99701.66
2018-04-08T01:01:07.038Z,99705.91
2018-04-08T01:03:34.515Z,99689.33
2018-04-08T01:06:02.134Z,99699.07
2018-04-08T01:08:29.700Z,99701.95
2018-04-08T01:10:57.166Z,99701.60
2018-04-08T01:13:24.645Z,99697.66
2018-04-08T01:15:52.095Z,99692.61
2018-04-08T01:18:19.579Z,99690.56
2018-04-08T01:20:47.036Z,99692.28
2018-04-08T01:23:14.503Z,99688.42
2018-04-08T01:25:41.976Z,99685.05
2018-04-08T01:28:09.456Z,99681.30
2018-04-08T01:30:36.919Z,99672.84
2018-04-08T01:33:04.385Z,99665.97
2018-04-08T01:35:31.856Z,99662.67
2018-04-08T01:37:59.372Z,99660.16
2018-04-08T01:40:26.823Z,99653.44
2018-04-08T01:42:54.275Z,99650.45
2018-04-08T01:45:21.735Z,99645.34
2018-04-08T01:47:49.193Z,99647.88
2018-04-08T01:50:16.647Z,99632.23
2018-04-08T01:52:44.124Z,99630.53
2018-04-08T01:55:11.638Z,99620.66
2018-04-08T01:57:39.089Z,99612.61
2018-04-08T02:00:06.573Z,99616.09
2018-04-08T02:02:34.029Z,99611.30
2018-04-08T02:05:01.488Z,99610.83
2018-04-08T02:07:28.970Z,99612.84
2018-04-08T02:09:56.609Z,99612.30
2018-04-08T02:12:24.090Z,99606.41
2018-04-08T02:14:51.568Z,99600.47
2018-04-08T02:17:19.051Z,99585.15
2018-04-08T02:19:46.522Z,99589.77
2018-04-08T02:22:13.995Z,99596.56
2018-04-08T02:24:41.451Z,99596.16
2018-04-08T02:27:08.931Z,99594.91
2018-04-08T02:29:36.423Z,99597.83
2018-04-08T02:32:03.902Z,99596.10
2018-04-08T02:34:31.454Z,99594.37
2018-04-08T02:36:58.905Z,99600.30
2018-04-08T02:39:26.353Z,99603.22
2018-04-08T02:41:53.852Z,99594.77
2018-04-08T02:44:21.344Z,99590.47
2018-04-08T02:46:48.841Z,99593.09
2018-04-08T02:49:16.321Z,99582.87
2018-04-08T02:51:43.788Z,99579.95
2018-04-08T02:54:11.251Z,99575.33
2018-04-08T02:56:38.716Z,99566.05
2018-04-08T02:59:06.183Z,99563.53
2018-04-08T03:01:33.644Z,99557.66
2018-04-08T03:04:01.101Z,99559.70
2018-04-08T03:06:28.564Z,99548.64
2018-04-08T03:08:56.091Z,99547.42
2018-04-08T03:11:23.552Z,99546.08
2018-04-08T03:13:51.025Z,99540.95
2018-04-08T03:16:18.532Z,99535.14
2018-04-08T03:18:46.120Z,99518.06
2018-04-08T03:21:13.588Z,99524.44
2018-04-08T03:23:41.054Z,99525.78
2018-04-08T03:26:08.502Z,99519.88
2018-04-08T03:28:35.962Z,99518.17
2018-04-08T03:31:03.433Z,99514.44
2018-04-08T03:33:30.898Z,99517.53
2018-04-08T03:35:58.360Z,99513.67
2018-04-08T03:38:25.821Z,99520.93
2018-04-08T03:40:53.280Z,99517.53
2018-04-08T03:43:20.749Z,99513.30
2018-04-08T03:45:48.217Z,99504.83
2018-04-08T03:48:15.756Z,99492.52
2018-04-08T03:50:43.247Z,99489.17
2018-04-08T03:53:10.708Z,99487.45
2018-04-08T03:55:38.178Z,99487.87
2018-04-08T03:58:05.646Z,99478.12
2018-04-08T04:00:33.213Z,99484.49
2018-04-08T04:03:00.769Z,99489.63
2018-04-08T04:05:28.668Z,99484.52
2018-04-08T04:07:56.128Z,99489.22
2018-04-08T04:10:23.677Z,99485.45
2018-04-08T04:12:51.148Z,99482.02
2018-04-08T04:15:18.608Z,99475.25
2018-04-08T04:17:46.063Z,99475.33
2018-04-08T04:20:25.359Z,99487.12
2018-04-08T04:23:04.504Z,99483.80
2018-04-08T04:28:34.388Z,99481.75
2018-04-08T04:31:01.847Z,99473.67
2018-04-08T04:33:29.307Z,99475.34
2018-04-08T04:35:56.793Z,99473.27
2018-04-08T04:38:24.290Z,99464.75
2018-04-08T04:40:51.750Z,99460.42
2018-04-08T04:43:19.219Z,99460.84
2018-04-08T04:45:46.669Z,99454.76
2018-04-08T04:48:14.172Z,99455.13
2018-04-08T04:50:41.671Z,99448.23
2018-04-08T04:53:09.131Z,99445.66
2018-04-08T04:55:36.619Z,99450.30
2018-04-08T04:58:04.119Z,99445.09
2018-04-08T05:00:31.614Z,99440.36
2018-04-08T05:02:59.091Z,99441.95
2018-04-08T05:05:26.547Z,99438.06
2018-04-08T05:07:54.016Z,99433.31
2018-04-08T05:10:21.487Z,99424.55
2018-04-08T05:12:48.964Z,99423.27
2018-04-08T05:15:16.412Z,99433.20
2018-04-08T05:17:43.878Z,99434.45
2018-04-08T05:20:11.389Z,99427.59
2018-04-08T05:22:38.847Z,99424.87
2018-04-08T05:25:06.337Z,99424.74
2018-04-08T05:27:33.847Z,99419.96
2018-04-08T05:30:01.299Z,99424.27
2018-04-08T05:32:28.768Z,99408.04
2018-04-08T05:34:56.390Z,99406.25
2018-04-08T05:37:23.880Z,99391.23
2018-04-08T05:39:51.363Z,99403.22
2018-04-08T05:42:18.828Z,99396.44
2018-04-08T05:44:46.280Z,99397.95
2018-04-08T05:47:13.773Z,99397.96
2018-04-08T05:49:41.307Z,99397.44
2018-04-08T05:52:08.807Z,99402.48
2018-04-08T05:54:36.278Z,99401.83
2018-04-08T05:57:03.768Z,99398.36
2018-04-08T05:59:31.267Z,99401.94
2018-04-08T06:01:58.775Z,99401.58
2018-04-08T06:04:26.302Z,99399.34
2018-04-08T06:06:53.785Z,99398.21
2018-04-08T06:09:21.361Z,99396.46
2018-04-08T06:11:48.824Z,99390.87
2018-04-08T06:14:16.315Z,99396.86
2018-04-08T06:16:43.880Z,99388.00
2018-04-08T06:19:11.329Z,99389.63
2018-04-08T06:21:38.792Z,99384.22
2018-04-08T06:24:06.268Z,99382.35
2018-04-08T06:26:33.883Z,99383.64
2018-04-08T06:29:01.364Z,99394.78
2018-04-08T06:31:28.833Z,99374.09
2018-04-08T06:33:56.325Z,99382.51
2018-04-08T06:36:23.818Z,99388.99
2018-04-08T06:38:51.305Z,99378.88
2018-04-08T06:41:19.766Z,99375.09
2018-04-08T06:43:47.288Z,99366.34
2018-04-08T06:46:14.851Z,99363.67
2018-04-08T06:48:42.340Z,99359.08
2018-04-08T06:51:09.847Z,99356.58
2018-04-08T06:53:37.393Z,99368.47
2018-04-08T06:56:04.993Z,99359.83
2018-04-08T06:58:32.658Z,99355.69
2018-04-08T07:01:00.237Z,99354.11
2018-04-08T07:03:27.899Z,99350.55
2018-04-08T07:05:55.448Z,99345.72
2018-04-08T07:08:23.012Z,99345.26
2018-04-08T07:10:50.546Z,99344.19
2018-04-08T07:13:18.024Z,99336.53
2018-04-08T07:15:45.675Z,99333.49
2018-04-08T07:18:13.301Z,99329.97
2018-04-08T07:20:40.917Z,99318.52
2018-04-08T07:23:08.409Z,99328.97
2018-04-08T07:25:36.027Z,99323.13
2018-04-08T07:28:03.555Z,99320.92
2018-04-08T07:30:31.044Z,99327.73
2018-04-08T07:32:58.587Z,99320.23
2018-04-08T07:35:26.069Z,99321.70
2018-04-08T07:37:53.544Z,99315.27
2018-04-08T07:40:21.178Z,99314.75
2018-04-08T07:42:48.761Z,99310.45
2018-04-08T07:45:16.249Z,99290.12
2018-04-08T07:47:43.827Z,99295.84
2018-04-08T07:50:11.329Z,99291.59
2018-04-08T07:52:38.910Z,99292.56
2018-04-08T07:55:06.387Z,99288.03
2018-04-08T07:57:35.295Z,99267.84
2018-04-08T08:00:02.877Z,99266.69
2018-04-08T08:02:30.405Z,99268.72
2018-04-08T08:04:57.889Z,99265.63
2018-04-08T08:07:25.408Z,99262.18
2018-04-08T08:09:52.914Z,99259.97
2018-04-08T08:12:20.426Z,99251.71
2018-04-08T08:14:47.909Z,99259.50
2018-04-08T08:17:15.379Z,99254.50
2018-04-08T08:19:42.888Z,99258.16
2018-04-08T08:22:10.403Z,99250.77
2018-04-08T08:24:37.900Z,99250.77
2018-04-08T08:27:05.390Z,99239.67
2018-04-08T08:29:32.868Z,99248.53
2018-04-08T08:32:00.733Z,99249.28
2018-04-08T08:34:28.228Z,99246.01
2018-04-08T08:36:55.737Z,99242.88
2018-04-08T08:39:23.265Z,99241.44
2018-04-08T08:41:50.779Z,99251.82
2018-04-08T08:44:18.272Z,99236.80
2018-04-08T08:46:45.827Z,99249.86
2018-04-08T08:49:13.424Z,99242.97
2018-04-08T08:51:40.901Z,99253.91
2018-04-08T08:54:08.397Z,99248.72
2018-04-08T08:56:35.901Z,99254.08
2018-04-08T08:59:03.376Z,99255.00
2018-04-08T09:01:30.868Z,99254.34
2018-04-08T09:03:58.469Z,99249.91
2018-04-08T09:06:26.268Z,99261.37
2018-04-08T09:08:53.878Z,99255.81
2018-04-08T09:11:21.456Z,99255.16
2018-04-08T09:13:49.032Z,99257.67
2018-04-08T09:16:16.578Z,99259.38
2018-04-08T09:18:44.739Z,99258.22
2018-04-08T09:21:17.875Z,99262.88
2018-04-08T09:23:50.806Z,99253.28
2018-04-08T09:26:18.448Z,99254.86
2018-04-08T09:28:45.957Z,99240.84
2018-04-08T09:31:13.456Z,99244.83
2018-04-08T09:33:41.046Z,99246.44
2018-04-08T09:36:08.744Z,99249.28
2018-04-08T09:38:36.293Z,99242.30
2018-04-08T09:41:03.875Z,99236.97
2018-04-08T09:43:31.392Z,99234.84
2018-04-08T09:45:59.088Z,99233.20
2018-04-08T09:48:26.646Z,99238.06
2018-04-08T09:50:54.217Z,99226.41
2018-04-08T09:53:21.894Z,99221.25
2018-04-08T09:55:50.015Z,99223.63
2018-04-08T09:58:18.298Z,99218.90
2018-04-08T10:03:55.311Z,99204.73
2018-04-08T10:06:23.629Z,99203.11
2018-04-08T10:08:51.286Z,99203.87
2018-04-08T10:11:18.851Z,99203.08
2018-04-08T10:13:46.437Z,99203.59
2018-04-08T10:16:14.078Z,99192.97
2018-04-08T10:18:41.675Z,99181.89
2018-04-08T10:21:09.372Z,99191.75
2018-04-08T10:23:37.054Z,99188.58
2018-04-08T10:26:05.113Z,99192.87
2018-04-08T10:28:35.744Z,99194.74
2018-04-08T10:31:03.272Z,99195.20
2018-04-08T10:33:30.837Z,99179.01
2018-04-08T10:35:58.339Z,99183.45
2018-04-08T10:38:25.972Z,99192.66
2018-04-08T10:40:53.474Z,99192.67
2018-04-08T10:43:20.985Z,99183.74
2018-04-08T10:45:48.633Z,99175.32
2018-04-08T10:48:16.156Z,99167.83
2018-04-08T10:50:43.750Z,99168.55
2018-04-08T10:53:11.384Z,99168.63
2018-04-08T10:55:38.879Z,99167.63
2018-04-08T10:58:06.348Z,99163.09
2018-04-08T11:00:33.915Z,99161.38
2018-04-08T11:03:01.400Z,99152.22
2018-04-08T11:05:28.898Z,99158.98
2018-04-08T11:07:56.369Z,99162.75
2018-04-08T11:10:23.836Z,99161.68
2018-04-08T11:12:51.336Z,99157.98
2018-04-08T11:15:18.838Z,99156.48
2018-04-08T11:17:46.313Z,99158.53
2018-04-08T11:20:13.817Z,99160.10
2018-04-08T11:22:41.572Z,99159.91
2018-04-08T11:25:09.060Z,99146.61
2018-04-08T11:27:36.590Z,99147.17
2018-04-08T11:30:04.151Z,99149.33
2018-04-08T11:32:31.657Z,99142.89
2018-04-08T11:34:59.271Z,99151.22
2018-04-08T11:37:26.749Z,99150.47
2018-04-08T11:39:54.290Z,99155.84
2018-04-08T11:42:21.783Z,99140.02
2018-04-08T11:44:49.285Z,99139.46
2018-04-08T11:47:16.825Z,99133.05
2018-04-08T11:49:44.329Z,99138.40
2018-04-08T11:52:11.912Z,99149.12
2018-04-08T11:54:39.373Z,99132.41
2018-04-08T11:57:06.845Z,99136.43
2018-04-08T11:59:34.333Z,99125.64
2018-04-08T12:02:01.834Z,99127.40
2018-04-08T12:04:29.468Z,99125.84
2018-04-08T12:06:57.059Z,99127.90
2018-04-08T12:09:24.538Z,99124.38
2018-04-08T12:11:52.025Z,99119.87
2018-04-08T12:14:19.512Z,99112.86
2018-04-08T12:16:46.971Z,99119.91
2018-04-08T12:19:14.499Z,99106.16
2018-04-08T12:21:41.982Z,99114.84
2018-04-08T12:24:09.464Z,99096.94
2018-04-08T12:26:42.595Z,99095.63
2018-04-08T12:29:10.132Z,99092.28
2018-04-08T12:31:37.615Z,99081.45
2018-04-08T12:34:05.145Z,99087.39
2018-04-08T12:36:32.650Z,99073.25
2018-04-08T12:39:00.138Z,99056.97
2018-04-08T12:41:27.605Z,99058.34
2018-04-08T12:43:55.151Z,99059.27
2018-04-08T12:46:22.638Z,99054.11
2018-04-08T12:48:50.104Z,99054.84
2018-04-08T12:51:17.606Z,99052.83
2018-04-08T12:53:45.079Z,99047.02
2018-04-08T12:56:12.532Z,99038.00
2018-04-08T12:58:40.011Z,99049.52
2018-04-08T13:01:07.549Z,99048.51
2018-04-08T13:03:35.021Z,99040.18
2018-04-08T13:06:02.489Z,99036.48
2018-04-08T13:08:29.964Z,99035.27
2018-04-08T13:10:57.467Z,99029.34
2018-04-08T13:13:24.954Z,99029.01
2018-04-08T13:15:52.448Z,99030.23
2018-04-08T13:18:19.960Z,99035.34
2018-04-08T13:20:47.438Z,99020.97
2018-04-08T13:23:14.913Z,99022.84
2018-04-08T13:25:42.439Z,99024.44
2018-04-08T13:28:09.919Z,99012.52
2018-04-08T13:30:37.377Z,99011.07
2018-04-08T13:33:04.891Z,99011.95
2018-04-08T13:35:32.370Z,99018.72
2018-04-08T13:37:59.827Z,99015.45
2018-04-08T13:40:27.303Z,99018.52
2018-04-08T13:42:54.813Z,99010.56
2018-04-08T13:45:22.313Z,99013.93
2018-04-08T13:47:49.878Z,99006.52
2018-04-08T13:50:17.323Z,99011.53
2018-04-08T13:52:44.792Z,99010.41
2018-04-08T13:55:12.250Z,99007.30
2018-04-08T13:57:39.740Z,98988.42
2018-04-08T14:00:07.225Z,98995.80
2018-04-08T14:02:34.687Z,98999.45
2018-04-08T14:05:02.162Z,98993.95
2018-04-08T14:07:29.631Z,98987.81
2018-04-08T14:09:57.706Z,98972.26
2018-04-08T14:12:25.188Z,98970.53
2018-04-08T14:14:52.667Z,98977.70
2018-04-08T14:17:20.766Z,98968.43
2018-04-08T14:19:48.314Z,98972.94
2018-04-08T14:22:15.793Z,98964.52
2018-04-08T14:24:43.294Z,98958.38
2018-04-08T14:27:10.755Z,98941.91
2018-04-08T14:29:38.235Z,98952.23
2018-04-08T14:32:05.698Z,98958.19
2018-04-08T14:34:33.162Z,98949.42
2018-04-08T14:37:00.641Z,98940.94
2018-04-08T14:39:28.117Z,98938.94
2018-04-08T14:41:55.570Z,98947.59
2018-04-08T14:44:23.065Z,98944.46
2018-04-08T14:46:50.521Z,98947.67
2018-04-08T14:49:18.010Z,98952.65
2018-04-08T14:51:45.495Z,98948.25
2018-04-08T14:54:12.940Z,98954.86
2018-04-08T14:56:40.420Z,98958.47
2018-04-08T14:59:08.886Z,98949.28
2018-04-08T15:01:36.921Z,98948.80
2018-04-08T15:04:04.385Z,98944.19
2018-04-08T15:06:31.851Z,98951.19
2018-04-08T15:08:59.339Z,98942.11
2018-04-08T15:11:26.833Z,98944.63
2018-04-08T15:13:54.316Z,98937.14
2018-04-08T15:16:21.806Z,98948.70
2018-04-08T15:18:49.280Z,98937.34
2018-04-08T15:21:16.751Z,98934.54
2018-04-08T15:23:44.272Z,98933.30
2018-04-08T15:26:11.745Z,98930.47
2018-04-08T15:28:39.231Z,98928.64
2018-04-08T15:31:06.710Z,98929.73
2018-04-08T15:33:34.372Z,98925.42
2018-04-08T15:36:01.895Z,98932.06
2018-04-08T15:38:29.360Z,98927.92
2018-04-08T15:40:56.900Z,98927.06
2018-04-08T15:43:24.430Z,98930.47
2018-04-08T15:45:51.879Z,98938.11
2018-04-08T15:48:26.596Z,98929.14
2018-04-08T15:50:54.139Z,98939.03
2018-04-08T15:53:21.667Z,98931.65
2018-04-08T15:55:49.127Z,98922.57
2018-04-08T15:58:16.599Z,98922.31
2018-04-08T16:00:44.074Z,98918.81
2018-04-08T16:03:11.527Z,98919.77
2018-04-08T16:05:39.023Z,98912.70
2018-04-08T16:08:07.413Z,98911.64
2018-04-08T16:10:34.877Z,98902.81
2018-04-08T16:13:02.394Z,98915.58
2018-04-08T16:15:29.859Z,98913.38
2018-04-08T16:17:57.348Z,98919.70
2018-04-08T16:20:25.332Z,98901.35
2018-04-08T16:22:52.806Z,98921.61
2018-04-08T16:25:20.317Z,98920.80
2018-04-08T16:27:47.794Z,98910.34
2018-04-08T16:30:15.280Z,98912.64
2018-04-08T16:32:42.764Z,98916.02
2018-04-08T16:35:10.228Z,98921.79
2018-04-08T16:37:37.691Z,98915.04
2018-04-08T16:40:05.159Z,98923.03
2018-04-08T16:42:32.639Z,98918.41
2018-04-08T16:45:00.170Z,98908.38
2018-04-08T16:47:27.643Z,98917.19
2018-04-08T16:49:55.091Z,98910.94
2018-04-08T16:52:22.644Z,98907.44
2018-04-08T16:54:50.133Z,98908.23
2018-04-08T16:57:17.590Z,98913.02
2018-04-08T16:59:45.116Z,98901.57
2018-04-08T17:02:12.607Z,98909.83
2018-04-08T17:04:40.101Z,98909.88
2018-04-08T17:07:07.595Z,98909.00
2018-04-08T17:09:35.051Z,98908.91
2018-04-08T17:12:02.554Z,98903.73
2018-04-08T17:14:30.055Z,98905.86
2018-04-08T17:16:57.519Z,98906.33
2018-04-08T17:19:25.019Z,98905.94
2018-04-08T17:21:52.605Z,98903.05
2018-04-08T17:24:20.619Z,98907.42
2018-04-08T17:26:48.244Z,98908.36
2018-04-08T17:29:15.797Z,98912.65
2018-04-08T17:31:43.372Z,98921.22
2018-04-08T17:34:10.936Z,98916.41
2018-04-08T17:36:38.423Z,98914.53
2018-04-08T17:39:06.696Z,98915.30
2018-04-08T17:41:34.180Z,98920.15
2018-04-08T17:44:01.778Z,98924.57
2018-04-08T17:46:29.335Z,98925.08
2018-04-08T17:48:56.897Z,98917.91
2018-04-08T17:51:24.500Z,98924.53
2018-04-08T17:53:52.245Z,98918.56
2018-04-08T17:56:19.795Z,98922.36
2018-04-08T17:58:47.287Z,98921.86
2018-04-08T18:01:14.886Z,98928.39
2018-04-08T18:03:42.433Z,98929.28
2018-04-08T18:06:10.152Z,98928.64
2018-04-08T18:08:37.776Z,98935.26
2018-04-08T18:11:05.294Z,98939.66
2018-04-08T18:13:32.821Z,98938.77
2018-04-08T18:16:00.355Z,98945.81
2018-04-08T18:18:27.879Z,98944.59
2018-04-08T18:20:55.401Z,98946.01
2018-04-08T18:23:22.891Z,98949.57
2018-04-08T18:25:50.388Z,98943.84
2018-04-08T18:28:21.225Z,98939.96
2018-04-08T18:30:48.716Z,98945.78
2018-04-08T18:33:16.295Z,98943.69
2018-04-08T18:35:43.777Z,98952.84
2018-04-08T18:38:11.308Z,98947.85
2018-04-08T18:40:38.808Z,98950.27
2018-04-08T18:43:06.322Z,98949.66
2018-04-08T18:45:33.833Z,98949.27
2018-04-08T18:48:01.353Z,98945.86
2018-04-08T18:50:28.836Z,98943.20
2018-04-08T18:52:56.360Z,98936.94
2018-04-08T18:55:23.812Z,98947.83
2018-04-08T18:57:51.310Z,98946.66
2018-04-08T19:00:18.810Z,98950.31
2018-04-08T19:02:46.287Z,98948.02
2018-04-08T19:05:13.873Z,98948.66
2018-04-08T19:07:41.397Z,98951.48
2018-04-08T19:10:08.950Z,98948.17
2018-04-08T19:12:36.430Z,98953.89
2018-04-08T19:15:20.741Z,98952.50
2018-04-08T19:17:53.804Z,98951.22
2018-04-08T19:20:21.359Z,98956.76
2018-04-08T19:22:48.853Z,98950.21
2018-04-08T19:25:16.404Z,98957.06
2018-04-08T19:27:43.913Z,98944.90
2018-04-08T19:30:21.814Z,98949.07
2018-04-08T19:32:49.356Z,98940.75
2018-04-08T19:35:16.871Z,98951.02
2018-04-08T19:37:44.421Z,98940.30
2018-04-08T19:40:11.966Z,98948.98
2018-04-08T19:42:39.483Z,98937.86
2018-04-08T19:45:07.005Z,98939.52
2018-04-08T19:47:34.503Z,98936.09
2018-04-08T19:50:02.014Z,98935.22
2018-04-08T19:52:29.515Z,98933.33
2018-04-08T19:54:57.189Z,98917.89
2018-04-08T19:57:25.868Z,98927.73
2018-04-08T19:59:53.695Z,98927.34
2018-04-08T20:02:21.179Z,98929.02
2018-04-08T20:04:48.673Z,98931.73
2018-04-08T20:07:16.174Z,98924.55
2018-04-08T20:09:43.658Z,98932.61
2018-04-08T20:12:11.150Z,98928.44
2018-04-08T20:14:38.673Z,98927.34
2018-04-08T20:17:06.170Z,98927.19
2018-04-08T20:19:33.682Z,98925.39
2018-04-08T20:22:01.234Z,98923.46
2018-04-08T20:24:28.721Z,98923.84
2018-04-08T20:26:56.276Z,98916.69
2018-04-08T20:29:23.799Z,98912.68
2018-04-08T20:31:51.328Z,98919.64
2018-04-08T20:34:18.817Z,98901.39
2018-04-08T20:36:46.324Z,98923.34
2018-04-08T20:39:13.833Z,98919.17
2018-04-08T20:41:41.352Z,98923.16
2018-04-08T20:44:08.849Z,98921.84
2018-04-08T20:46:36.342Z,98925.95
2018-04-08T20:49:03.889Z,98927.47
2018-04-08T20:51:31.371Z,98934.14
2018-04-08T20:53:58.876Z,98938.12
2018-04-08T20:56:26.357Z,98938.12
2018-04-08T20:58:53.892Z,98937.77
2018-04-08T21:01:21.358Z,98934.50
2018-04-08T21:03:51.410Z,98936.43
2018-04-08T21:06:19.013Z,98935.08
2018-04-08T21:08:46.519Z,98932.78
2018-04-08T21:11:14.010Z,98935.59
2018-04-08T21:13:41.493Z,98934.84
2018-04-08T21:16:08.982Z,98931.53
2018-04-08T21:18:36.457Z,98932.59
2018-04-08T21:21:03.961Z,98929.04
2018-04-08T21:23:31.513Z,98927.44
2018-04-08T21:25:58.997Z,98934.16
2018-04-08T21:28:26.531Z,98931.24
2018-04-08T21:30:54.048Z,98928.42
2018-04-08T21:33:21.541Z,98922.98
2018-04-08T21:35:48.992Z,98926.63
2018-04-08T21:38:16.488Z,98931.89
2018-04-08T21:40:43.971Z,98923.82
2018-04-08T21:43:11.459Z,98916.86
2018-04-08T21:45:38.944Z,98921.44
2018-04-08T21:48:06.412Z,98928.96
2018-04-08T21:50:33.897Z,98919.36
2018-04-08T21:53:01.371Z,98914.42
2018-04-08T21:55:28.829Z,98915.18
2018-04-08T21:57:56.305Z,98912.78
2018-04-08T22:00:23.964Z,98915.41
2018-04-08T22:02:51.437Z,98916.69
2018-04-08T22:05:18.903Z,98915.08
2018-04-08T22:07:46.417Z,98909.42
2018-04-08T22:10:13.886Z,98905.59
2018-04-08T22:12:41.387Z,98909.52
2018-04-08T22:15:08.901Z,98914.09
2018-04-08T22:17:37.003Z,98908.02
2018-04-08T22:20:04.470Z,98895.58
2018-04-08T22:22:32.411Z,98901.67
2018-04-08T22:24:59.851Z,98902.76
2018-04-08T22:27:27.307Z,98901.65
2018-04-08T22:29:54.776Z,98903.84
2018-04-08T22:32:22.298Z,98911.78
2018-04-08T22:34:49.755Z,98904.27
2018-04-08T22:37:17.539Z,98900.34
2018-04-08T22:39:45.035Z,98897.14
2018-04-08T22:42:12.508Z,98894.14
2018-04-08T22:44:39.982Z,98897.95
2018-04-08T22:47:07.433Z,98899.80
2018-04-08T22:49:34.907Z,98897.30
2018-04-08T22:52:02.444Z,98890.80
2018-04-08T22:54:30.559Z,98892.55
2018-04-08T22:56:58.035Z,98897.83
2018-04-08T22:59:25.510Z,98895.54
2018-04-08T23:01:52.978Z,98895.45
2018-04-08T23:04:20.471Z,98895.27
2018-04-08T23:06:47.965Z,98892.94
2018-04-08T23:09:15.436Z,98889.72
2018-04-08T23:11:42.902Z,98884.21
2018-04-08T23:14:10.369Z,98881.88
2018-04-08T23:16:37.837Z,98890.22
2018-04-08T23:19:05.296Z,98888.95
2018-04-08T23:21:32.839Z,98878.48
2018-04-08T23:24:00.303Z,98893.03
2018-04-08T23:26:27.762Z,98883.91
2018-04-08T23:28:55.258Z,98889.27
2018-04-08T23:31:22.760Z,98883.83
2018-04-08T23:33:50.237Z,98879.28
2018-04-08T23:36:17.710Z,98880.62
2018-04-08T23:38:45.497Z,98878.63
2018-04-08T23:41:12.967Z,98862.80
2018-04-08T23:43:40.423Z,98868.63
2018-04-08T23:46:07.912Z,98860.98
2018-04-08T23:48:35.444Z,98863.27
2018-04-08T23:51:02.933Z,98867.95
2018-04-08T23:53:30.414Z,98863.22
2018-04-08T23:55:57.890Z,98862.88
2018-04-08T23:58:25.330Z,98857.47
